Denver, Indiana
Current Conditions -  °F | °C
As of 3:15 PM on Monday 24 Nov 2014 (Local Time) from KRCR Reporting Station
Light Snow Light Snow  
Wind Chill: 25°   Ceiling: 800
Heat Index: 36°   Visibility: 1.5mi
Dew Point: 34°   Wind: 20mph
Humidity: 93%   Direction: 230°SW
Pressure: 29.55"   Gusts: 35mph
Location:  40.87°N, 86.08°W
Report Text: KRCR 242015Z AUTO 23017G30KT 1 1/2SM -SN BKN008 BKN012 OVC018 02/01 A2955 RMK AO2
Loading
Personal Weather Stations






























Interactive Weather Map New forecast layout! Learn more

10-Day Weather Forecast

Advertisements
Track Severe Weather on mobile